Акалаха

Карта отелей и гостиниц, располагающихся рядом с аэропортом Акалаха :

Акалаха Алтай 49° 16' 21.1188" N, 87° 29' 32.8812" E
Акалаха Алтай 49° 16' 21.1188" N, 87° 29' 32.8812" E
Код аэродрома ИКАО
HCA1
Код аэродрома RU
ХЦА1
Координаты
N49.27253° E087.49247°
Превышение над уровнем моря
2201
Основная полоса
07/25
Курс магнитный
071,1/251,1
Длина основной ВПП
50
Ширина основной ВПП
50
Покрытие основной ВПП
Нетвёрдое (грунт)
Освещение ВПП
Нет
Тип: 
Вертодром
Класс аэродрома: 
Принадлежность: 
ФСБ
Статус: 
Действующий
Сайт: 
E-mail аэродрома: 
Страна: 
Россия
Регион: 
Алтай
Город: 
Дополнительная информация: 
Горный. Владелец ПП: Погранзастава ФСБ России.

Найти трансфер

С помощью этой формы Вы можете найти трансфер из аэропорта Акалаха в город, аэропорт или вокзал:

Карта места

Javascript is required to view this map.

Погода в аэропортах:

Авиационная погода в Караганде

Регион: 
Погода METAR: 
UAKK 281300Z 24005MPS 8000 -RA OVC030 08/07 Q1010 R23/2///60 NOSIG RMK QFE711/0948
Время наблюдения
2021-09-28T13:00:00Z
Температура C
8.0
Точка росы
7.0
Направление ветра
240
Скорость ветра (узлы)
10
Метео видимость
4.97
Явления погоды
-RA
Условия полета
MVFR
Аэропорт подробнее: 

Авиационная погода в Нальчике

Регион: 
Погода METAR: 
URMN 281200Z 05003MPS 9999 -SHRA BKN022CB 14/09 Q1018 R24/110060 NOSIG RMK QFE727
Время наблюдения
2021-09-28T12:00:00Z
Температура C
14.0
Точка росы
9.0
Направление ветра
50
Скорость ветра (узлы)
6
Метео видимость
6.21
Явления погоды
-SHRA
Условия полета
MVFR
Аэропорт подробнее: 

Авиационная погода в Йоэнсуу

Регион: 
Погода METAR: 
EFJO 281150Z AUTO 15006KT 130V200 0900 0650 R28/1400U BCFG OVC001 06/06 Q1034
Время наблюдения
2021-09-28T11:50:00Z
Температура C
6.0
Точка росы
6.0
Направление ветра
150
Скорость ветра (узлы)
6
Метео видимость
0.56
Явления погоды
BCFG
Условия полета
LIFR

Авиационная погода в Магнитогорске

Погода METAR: 
USCM 281200Z 03010MPS 4500 -SHRA BR OVC010CB 02/02 Q1016 R36/290055 TEMPO 02015MPS 1200 SHSNRA BR VV004 RMK QFE724
Время наблюдения
2021-09-28T12:00:00Z
Температура C
2.0
Точка росы
2.0
Направление ветра
30
Скорость ветра (узлы)
19
Метео видимость
2.8
Явления погоды
-SHRA BR
Условия полета
IFR
Аэропорт подробнее: